Time;durP1;ratioP1;P1;durP2;ratioP2;P2;SDS_P1;SDS_P2;PMS_P1;PMS_P2;Temp;Humidity;BMP_temperature;BMP_pressure;BME280_temperature;BME280_humidity;BME280_pressure;Samples;Min_cycle;Max_cycle;Signal;HPM_P1;HPM_P2
2020/12/15 00:01:20;;;;;;;9.00;6.57;;;;;;;9.44;94.04;100615.34;5035378;28;20167;-75
2020/12/15 00:03:46;;;;;;;9.90;6.57;;;;;;;9.50;93.15;100618.25;5040253;28;20033;-75
2020/12/15 00:06:11;;;;;;;9.82;7.03;;;;;;;9.46;92.76;100608.06;5039122;28;20068;-75
2020/12/15 00:08:37;;;;;;;10.13;7.00;;;;;;;9.42;93.33;100610.19;5028353;28;20068;-73
2020/12/15 00:11:02;;;;;;;8.10;7.22;;;;;;;9.29;93.55;100593.75;5020193;28;20128;-77
2020/12/15 00:13:29;;;;;;;10.85;7.20;;;;;;;9.38;93.64;100606.16;5039542;28;20151;-75
2020/12/15 00:15:54;;;;;;;10.18;7.70;;;;;;;9.51;93.75;100619.06;5035840;28;20196;-75
2020/12/15 00:18:20;;;;;;;12.98;7.40;;;;;;;9.44;93.28;100608.19;5041369;28;20119;-75
2020/12/15 00:20:45;;;;;;;9.55;6.95;;;;;;;9.44;93.62;100613.50;5020536;28;20041;-75
2020/12/15 00:23:11;;;;;;;10.85;7.70;;;;;;;9.42;93.31;100606.69;5040196;28;20124;-74
2020/12/15 00:25:36;;;;;;;8.85;7.65;;;;;;;9.41;93.61;100599.66;5017688;28;20163;-76
2020/12/15 00:28:02;;;;;;;9.80;7.82;;;;;;;9.42;93.04;100593.34;5036304;28;20125;-75
2020/12/15 00:30:27;;;;;;;12.15;8.30;;;;;;;9.40;93.83;100595.34;5042057;28;20143;-76
2020/12/15 00:32:53;;;;;;;9.45;8.50;;;;;;;9.37;93.54;100590.31;5032671;28;20116;-73
2020/12/15 00:35:19;;;;;;;9.25;8.35;;;;;;;9.37;94.02;100596.47;5014712;28;21797;-75
2020/12/15 00:37:44;;;;;;;11.52;9.35;;;;;;;9.31;94.56;100591.75;5038424;28;20039;-76
2020/12/15 00:40:10;;;;;;;10.50;9.40;;;;;;;9.32;93.93;100596.09;5035756;28;20120;-76
2020/12/15 00:42:35;;;;;;;13.07;9.40;;;;;;;9.36;94.39;100586.81;5039621;28;20466;-73
2020/12/15 00:45:01;;;;;;;10.75;8.90;;;;;;;9.37;94.52;100574.31;5037553;28;20575;-75
2020/12/15 00:47:30;;;;;;;11.43;9.13;;;;;;;9.38;94.43;100582.19;5033297;28;20128;-75
2020/12/15 00:49:56;;;;;;;11.80;9.50;;;;;;;9.36;93.79;100581.50;5035165;28;20041;-74
2020/12/15 00:52:25;;;;;;;11.50;9.73;;;;;;;9.33;94.27;100577.31;5037769;28;20132;-75
2020/12/15 00:54:51;;;;;;;10.40;9.27;;;;;;;9.30;94.41;100574.09;5015439;28;20108;-76
2020/12/15 00:57:17;;;;;;;12.13;10.65;;;;;;;9.27;94.89;100580.56;5036079;28;20482;-73
2020/12/15 00:59:43;;;;;;;11.45;9.85;;;;;;;9.34;94.40;100580.81;5031397;28;20488;-75
2020/12/15 01:02:09;;;;;;;10.65;9.55;;;;;;;9.33;94.73;100582.63;5016482;28;20100;-76
2020/12/15 01:04:34;;;;;;;11.00;9.75;;;;;;;9.31;94.48;100583.75;5035856;28;20544;-75
2020/12/15 01:07:00;;;;;;;13.48;10.10;;;;;;;9.25;94.83;100581.72;5033533;28;20051;-76
2020/12/15 01:09:25;;;;;;;14.32;10.27;;;;;;;9.28;94.26;100581.41;5038697;28;20116;-75
2020/12/15 01:11:51;;;;;;;11.50;9.18;;;;;;;9.28;94.51;100565.44;5015450;28;20523;-76
2020/12/15 01:14:16;;;;;;;12.98;9.82;;;;;;;9.27;94.29;100566.44;5031368;28;20164;-75
2020/12/15 01:16:42;;;;;;;13.30;10.20;;;;;;;9.26;94.87;100576.22;5017166;28;20140;-76
2020/12/15 01:19:07;;;;;;;10.88;9.50;;;;;;;9.27;94.36;100571.75;5032492;28;20533;-76
2020/12/15 01:21:33;;;;;;;10.65;9.52;;;;;;;9.08;94.46;100552.25;5030428;28;20144;-76
2020/12/15 01:23:58;;;;;;;10.63;9.60;;;;;;;9.18;94.62;100571.66;5015656;28;20406;-75
2020/12/15 01:26:24;;;;;;;10.00;9.00;;;;;;;9.19;94.90;100573.31;5032225;28;20061;-75
2020/12/15 01:28:50;;;;;;;12.65;9.93;;;;;;;9.22;94.01;100584.66;5034692;28;20602;-73
2020/12/15 01:31:15;;;;;;;11.23;9.80;;;;;;;9.14;94.82;100567.63;5032902;28;20029;-75
2020/12/15 01:33:41;;;;;;;14.27;10.65;;;;;;;9.13;94.33;100568.63;5018833;28;20116;-75
2020/12/15 01:36:06;;;;;;;12.45;9.95;;;;;;;9.13;95.33;100571.28;5036795;28;20116;-75
2020/12/15 01:38:32;;;;;;;14.00;10.20;;;;;;;9.08;94.93;100568.22;5034956;28;20124;-75
2020/12/15 01:40:57;;;;;;;14.45;10.60;;;;;;;9.10;94.90;100574.25;5030541;28;20166;-76
2020/12/15 01:43:23;;;;;;;11.35;10.13;;;;;;;8.97;95.04;100541.81;5015055;28;20104;-76
2020/12/15 01:45:48;;;;;;;12.65;9.60;;;;;;;9.09;95.06;100563.75;5020525;28;20123;-76
2020/12/15 01:48:14;;;;;;;10.85;9.73;;;;;;;9.01;95.12;100562.66;5031508;28;20113;-75
2020/12/15 01:50:39;;;;;;;11.80;9.68;;;;;;;9.00;94.87;100571.63;5016417;28;20125;-76
2020/12/15 01:53:08;;;;;;;12.77;9.43;;;;;;;8.96;95.28;100556.94;5001894;28;20064;-76
2020/12/15 01:55:34;;;;;;;13.05;9.15;;;;;;;9.13;94.56;100584.59;5016837;28;20037;-75
2020/12/15 01:58:00;;;;;;;12.15;9.23;;;;;;;8.98;94.52;100562.97;5032527;28;20116;-76
2020/12/15 02:00:26;;;;;;;12.50;9.48;;;;;;;9.12;95.34;100587.38;5016174;28;20107;-76
2020/12/15 02:02:52;;;;;;;11.52;10.00;;;;;;;9.08;94.06;100583.38;5032127;28;20037;-76
2020/12/15 02:05:17;;;;;;;11.95;9.43;;;;;;;9.08;94.68;100583.38;5015811;28;20036;-74
2020/12/15 02:07:43;;;;;;;11.25;9.48;;;;;;;9.08;94.68;100591.38;5002945;28;20128;-73
2020/12/15 02:10:08;;;;;;;11.35;9.48;;;;;;;9.12;94.47;100595.38;5017275;28;20120;-75
2020/12/15 02:12:34;;;;;;;12.50;9.52;;;;;;;9.09;94.23;100599.19;5034845;28;20117;-75
2020/12/15 02:14:59;;;;;;;10.30;9.18;;;;;;;9.10;94.57;100600.88;5030683;28;20065;-76
2020/12/15 02:17:25;;;;;;;14.27;10.15;;;;;;;9.14;94.76;100599.59;5017014;28;20149;-75
2020/12/15 02:20:23;;;;;;;11.63;10.10;;;;;;;9.16;94.97;100584.28;5013485;28;20568;-74
2020/12/15 02:22:48;;;;;;;14.52;10.15;;;;;;;9.14;94.45;100583.63;4988695;28;20077;-81
2020/12/15 02:25:14;;;;;;;12.27;9.85;;;;;;;9.14;95.07;100582.75;5037464;28;20080;-76
2020/12/15 02:27:40;;;;;;;15.05;10.68;;;;;;;9.13;95.23;100584.59;5036861;28;20254;-76
2020/12/15 02:30:06;;;;;;;11.57;10.20;;;;;;;9.16;95.26;100589.59;5016494;28;20039;-76
2020/12/15 02:32:33;;;;;;;14.27;11.05;;;;;;;9.14;94.98;100583.63;5018254;28;20041;-73
2020/12/15 02:34:59;;;;;;;13.38;11.30;;;;;;;9.00;95.46;100584.94;5036746;28;20072;-75
2020/12/15 02:37:24;;;;;;;15.20;11.18;;;;;;;9.15;95.12;100587.94;5022540;28;20336;-77
2020/12/15 02:39:50;;;;;;;15.35;11.90;;;;;;;9.13;94.99;100589.06;5024447;28;20127;-76
2020/12/15 02:42:16;;;;;;;14.40;11.60;;;;;;;9.14;95.91;100594.25;5025722;28;20116;-75
2020/12/15 02:44:41;;;;;;;12.27;10.55;;;;;;;9.11;95.52;100589.22;5040435;28;20140;-74
2020/12/15 02:47:07;;;;;;;13.98;11.35;;;;;;;9.13;95.53;100603.22;5037964;28;20064;-76
2020/12/15 02:49:32;;;;;;;17.10;12.18;;;;;;;9.10;95.39;100595.53;5021803;28;20457;-76
2020/12/15 02:51:59;;;;;;;13.98;10.73;;;;;;;9.14;95.68;100602.25;5026179;28;20120;-75
2020/12/15 02:54:24;;;;;;;13.82;10.45;;;;;;;9.16;94.98;100602.09;5040887;28;20745;-75
2020/12/15 02:56:50;;;;;;;15.68;11.48;;;;;;;9.13;95.69;100610.38;5021371;28;20064;-73
2020/12/15 02:59:15;;;;;;;15.13;10.90;;;;;;;9.15;95.23;100611.06;5038789;28;20115;-73
2020/12/15 03:01:44;;;;;;;13.35;10.90;;;;;;;9.14;95.66;100614.69;5040233;28;20123;-77
2020/12/15 03:04:09;;;;;;;;;;;;;;;9.15;95.16;100619.91;5024637;28;20632;-76
2020/12/15 03:06:35;;;;;;;14.10;9.90;;;;;;;9.13;94.90;100626.34;5038171;28;19968;-77
2020/12/15 03:09:00;;;;;;;13.48;9.98;;;;;;;9.09;95.52;100615.16;5037562;28;20052;-76
2020/12/15 03:11:26;;;;;;;13.98;9.70;;;;;;;9.10;95.53;100618.66;5018238;28;20095;-77
2020/12/15 03:13:52;;;;;;;12.50;9.93;;;;;;;9.11;95.70;100628.31;5041810;28;20028;-78
2020/12/15 03:16:18;;;;;;;18.00;10.57;;;;;;;9.08;95.24;100637.44;5018616;28;20120;-77
2020/12/15 03:18:43;;;;;;;14.18;10.48;;;;;;;9.16;95.11;100628.72;5041993;28;20128;-75
2020/12/15 03:21:09;;;;;;;14.30;9.95;;;;;;;9.22;94.55;100632.59;5032270;28;20124;-76
2020/12/15 03:23:34;;;;;;;13.30;9.48;;;;;;;9.21;94.88;100637.09;5037478;28;20133;-73
2020/12/15 03:26:00;;;;;;;14.52;10.23;;;;;;;9.20;94.57;100646.06;5020711;28;20171;-73
2020/12/15 03:28:26;;;;;;;16.58;10.23;;;;;;;9.21;94.98;100638.91;5021973;28;20583;-75
2020/12/15 03:30:51;;;;;;;12.73;9.80;;;;;;;9.20;94.69;100635.41;5035409;28;20682;-80
2020/12/15 03:33:17;;;;;;;13.45;10.43;;;;;;;9.15;95.14;100627.88;5032229;28;20034;-75
2020/12/15 03:35:43;;;;;;;13.90;11.25;;;;;;;9.10;95.22;100632.81;5022009;28;20325;-75
2020/12/15 03:38:08;;;;;;;12.85;11.30;;;;;;;9.21;94.72;100645.09;5023955;28;20039;-75
2020/12/15 03:40:34;;;;;;;14.60;11.07;;;;;;;9.22;94.67;100648.56;5038346;28;20029;-75
2020/12/15 03:42:59;;;;;;;12.48;11.18;;;;;;;9.26;95.13;100647.28;5033289;28;20918;-75
2020/12/15 03:45:25;;;;;;;14.18;11.27;;;;;;;9.29;94.73;100633.69;5039345;28;20150;-73
2020/12/15 03:47:51;;;;;;;14.13;12.35;;;;;;;9.31;94.54;100623.69;5033704;28;20148;-75
2020/12/15 03:50:16;;;;;;;16.55;12.57;;;;;;;9.29;94.77;100623.88;5034147;28;20065;-73
2020/12/15 03:52:42;;;;;;;13.73;11.98;;;;;;;9.28;95.17;100621.34;5022970;28;20132;-76
2020/12/15 03:55:07;;;;;;;15.77;12.25;;;;;;;9.29;94.86;100617.72;5034960;28;20120;-76
2020/12/15 03:57:33;;;;;;;14.82;12.68;;;;;;;9.28;94.68;100621.34;5030549;28;20029;-76
2020/12/15 03:59:58;;;;;;;15.55;12.50;;;;;;;9.25;94.81;100613.66;5028237;28;20040;-74
2020/12/15 04:02:24;;;;;;;15.20;13.60;;;;;;;9.21;95.24;100614.94;5030042;28;20063;-75
2020/12/15 04:04:50;;;;;;;17.50;13.73;;;;;;;9.22;94.57;100621.94;5014616;28;20036;-76
2020/12/15 04:07:16;;;;;;;16.38;13.70;;;;;;;9.19;94.81;100621.25;5033729;28;20064;-76
2020/12/15 04:09:41;;;;;;;17.30;14.35;;;;;;;9.20;95.19;100635.41;5036972;28;20148;-76
2020/12/15 04:12:07;;;;;;;18.38;14.32;;;;;;;9.15;95.33;100625.22;5032862;28;20121;-75
2020/12/15 04:14:33;;;;;;;20.58;13.70;;;;;;;9.16;95.22;100634.84;5033799;28;20116;-76
2020/12/15 04:16:58;;;;;;;18.20;14.32;;;;;;;9.14;95.08;100625.34;5034952;28;20127;-74
2020/12/15 04:19:24;;;;;;;17.60;14.07;;;;;;;9.15;95.77;100629.69;5037429;28;20116;-73
2020/12/15 04:21:49;;;;;;;16.98;12.82;;;;;;;9.14;94.98;100623.53;5030585;28;20875;-74
2020/12/15 04:24:15;;;;;;;18.60;14.02;;;;;;;9.12;95.30;100624.66;5036887;28;20591;-73
2020/12/15 04:26:40;;;;;;;17.38;14.27;;;;;;;9.09;95.49;100625.81;5037532;28;20543;-76
2020/12/15 04:29:06;;;;;;;17.65;14.30;;;;;;;9.13;95.19;100629.84;5030900;28;20379;-75
2020/12/15 04:31:31;;;;;;;15.75;13.98;;;;;;;9.10;95.64;100621.31;5034542;28;20068;-76
2020/12/15 04:33:57;;;;;;;17.80;14.10;;;;;;;9.08;95.31;100626.78;5040570;28;20132;-75
2020/12/15 04:36:22;;;;;;;21.00;13.85;;;;;;;9.08;96.08;100625.97;5030566;28;20124;-75
2020/12/15 04:38:48;;;;;;;16.50;14.70;;;;;;;9.09;95.47;100632.97;5037500;28;20119;-77
2020/12/15 04:41:14;;;;;;;17.95;13.70;;;;;;;9.14;95.17;100631.53;5017497;28;20051;-76
2020/12/15 04:43:40;;;;;;;17.45;13.07;;;;;;;9.13;95.92;100640.50;5035533;28;20590;-76
2020/12/15 04:46:05;;;;;;;14.70;11.82;;;;;;;9.07;95.10;100638.41;5036164;28;20034;-76
2020/12/15 04:48:31;;;;;;;15.85;12.35;;;;;;;9.08;95.44;100637.44;5007529;28;21059;-77
2020/12/15 04:50:58;;;;;;;14.85;11.88;;;;;;;9.08;95.05;100636.63;5018057;28;20100;-76
2020/12/15 04:53:25;;;;;;;16.80;12.93;;;;;;;9.09;95.56;100641.78;5033176;28;20608;-76
2020/12/15 04:55:51;;;;;;;13.07;11.40;;;;;;;8.93;95.51;100614.97;5010701;28;20025;-76
2020/12/15 04:58:20;;;;;;;15.35;12.63;;;;;;;9.11;95.69;100647.78;5011947;28;20041;-76
2020/12/15 05:00:46;;;;;;;13.80;11.52;;;;;;;9.15;95.03;100645.66;5024055;28;20029;-76
2020/12/15 05:03:14;;;;;;;14.85;11.63;;;;;;;9.07;95.43;100643.75;5040439;28;20052;-75
2020/12/15 05:05:39;;;;;;;16.63;12.88;;;;;;;9.08;96.34;100648.09;5039373;28;20116;-76
2020/12/15 05:08:05;;;;;;;16.65;12.13;;;;;;;9.06;95.40;100641.25;5001594;28;20155;-77
2020/12/15 05:10:31;;;;;;;15.73;12.10;;;;;;;9.05;95.76;100645.72;5036390;28;20140;-76
2020/12/15 05:12:56;;;;;;;14.48;11.93;;;;;;;9.12;95.66;100640.63;5021909;28;20136;-76
2020/12/15 05:15:22;;;;;;;15.95;12.15;;;;;;;9.09;95.73;100640.94;5022018;28;20128;-76
2020/12/15 05:17:48;;;;;;;14.07;11.25;;;;;;;9.10;96.12;100643.44;5020331;28;20562;-80
2020/12/15 05:20:18;;;;;;;14.02;11.68;;;;;;;9.12;95.75;100638.81;5039895;28;20491;-76
2020/12/15 05:22:44;;;;;;;16.10;11.70;;;;;;;8.66;95.27;100577.56;5036131;28;20403;-75
2020/12/15 05:25:29;;;;;;;14.23;11.60;;;;;;;9.09;95.17;100644.44;5042681;28;20041;-73
2020/12/15 05:27:55;;;;;;;15.70;12.07;;;;;;;9.08;95.79;100647.25;5037439;28;20052;-73
2020/12/15 05:30:21;;;;;;;12.07;10.77;;;;;;;9.04;95.16;100639.56;5007447;28;20032;-75
2020/12/15 05:32:48;;;;;;;15.23;12.57;;;;;;;8.86;95.78;100625.34;5037768;28;20395;-79
2020/12/15 05:35:13;;;;;;;17.38;11.73;;;;;;;9.05;95.79;100640.38;5018000;28;20033;-75
2020/12/15 05:37:43;;;;;;;18.02;12.00;;;;;;;9.03;95.76;100637.88;5036756;28;20124;-75
2020/12/15 05:40:09;;;;;;;13.75;12.25;;;;;;;9.04;95.56;100641.38;5036789;28;20062;-75
2020/12/15 05:42:35;;;;;;;15.93;12.32;;;;;;;8.87;95.63;100625.22;5015454;28;20059;-75
2020/12/15 05:45:00;;;;;;;16.23;12.80;;;;;;;9.00;95.74;100653.31;5000573;28;20129;-75
2020/12/15 05:47:26;;;;;;;17.10;12.85;;;;;;;8.97;96.26;100654.44;5005416;28;20045;-76
2020/12/15 05:49:52;;;;;;;14.27;11.75;;;;;;;9.01;96.35;100653.16;5018410;28;20120;-76
2020/12/15 05:52:23;;;;;;;14.80;11.60;;;;;;;9.04;95.82;100654.69;5019666;28;20493;-75
2020/12/15 05:54:49;;;;;;;15.50;12.13;;;;;;;9.02;95.17;100656.69;4990185;28;20044;-76
2020/12/15 05:57:15;;;;;;;15.45;11.68;;;;;;;8.99;95.93;100660.44;5023418;28;20136;-75
2020/12/15 05:59:41;;;;;;;16.58;12.90;;;;;;;9.01;96.56;100657.66;5022936;28;20468;-73
2020/12/15 06:02:07;;;;;;;16.52;12.35;;;;;;;9.04;95.65;100657.34;5020218;28;20049;-73
2020/12/15 06:04:34;;;;;;;15.23;11.60;;;;;;;9.08;95.76;100653.41;5042441;28;20499;-73
2020/12/15 06:07:03;;;;;;;14.23;11.13;;;;;;;9.11;94.92;100660.25;5037218;28;20065;-73
2020/12/15 06:09:30;;;;;;;15.93;11.57;;;;;;;8.89;95.28;100614.41;5036921;28;20110;-73
2020/12/15 06:11:55;;;;;;;14.05;11.18;;;;;;;9.07;95.80;100638.41;5018938;28;20036;-73
2020/12/15 06:14:23;;;;;;;15.23;12.02;;;;;;;9.11;95.48;100644.28;5019894;28;20108;-75
2020/12/15 06:16:48;;;;;;;15.30;11.05;;;;;;;9.10;95.13;100645.25;5035280;28;20029;-76
2020/12/15 06:19:14;;;;;;;18.27;11.90;;;;;;;9.08;95.66;100650.75;5042948;28;20223;-75
2020/12/15 06:22:01;;;;;;;16.27;12.15;;;;;;;9.06;95.68;100652.72;5021063;28;20120;-75
2020/12/15 06:24:30;;;;;;;14.93;11.32;;;;;;;8.99;95.91;100644.47;5042797;28;20069;-75
2020/12/15 06:27:00;;;;;;;14.57;12.13;;;;;;;8.56;95.17;100579.41;5020125;28;20095;-76
2020/12/15 06:29:30;;;;;;;15.00;12.00;;;;;;;9.04;95.47;100660.84;5037490;28;20037;-75
2020/12/15 06:31:56;;;;;;;18.70;12.32;;;;;;;8.91;95.17;100640.88;5031487;28;20029;-78
2020/12/15 06:34:26;;;;;;;17.15;12.27;;;;;;;9.11;95.78;100663.78;5041758;28;20037;-75
2020/12/15 06:36:51;;;;;;;15.50;12.00;;;;;;;9.08;95.52;100672.03;5035912;28;20262;-76
2020/12/15 06:39:17;;;;;;;16.75;12.02;;;;;;;9.12;95.34;100673.44;5039979;28;20112;-76
2020/12/15 06:41:42;;;;;;;13.95;11.60;;;;;;;9.17;95.85;100679.13;5040135;28;20127;-77
2020/12/15 06:44:08;;;;;;;14.27;11.15;;;;;;;9.17;94.84;100680.97;5015820;28;20120;-75
2020/12/15 06:46:33;;;;;;;14.35;10.98;;;;;;;9.18;95.00;100674.66;5038001;28;20033;-76
2020/12/15 06:48:59;;;;;;;13.48;11.27;;;;;;;9.17;94.60;100665.00;5023423;28;20061;-76
2020/12/15 06:51:32;;;;;;;14.45;11.95;;;;;;;9.17;95.03;100668.47;5001718;28;20036;-76
2020/12/15 06:54:01;;;;;;;17.55;12.10;;;;;;;9.10;95.53;100654.09;5041902;28;20040;-75
2020/12/15 06:56:29;;;;;;;16.15;11.68;;;;;;;9.23;95.17;100676.88;5022251;28;20029;-75
2020/12/15 06:59:05;;;;;;;17.48;11.15;;;;;;;9.25;94.89;100674.91;5019594;28;20635;-75
2020/12/15 07:01:30;;;;;;;13.00;10.30;;;;;;;9.26;94.89;100679.25;5017632;28;20036;-75
2020/12/15 07:04:01;;;;;;;16.33;10.13;;;;;;;9.24;94.31;100686.53;5038340;28;20087;-75
2020/12/15 07:06:27;;;;;;;13.82;11.02;;;;;;;9.21;94.36;100685.03;5031613;28;20036;-75
2020/12/15 07:08:59;;;;;;;14.10;10.70;;;;;;;9.24;94.57;100690.03;5017587;28;20061;-76
2020/12/15 07:11:26;;;;;;;14.50;11.38;;;;;;;9.24;94.56;100689.19;5036289;28;20041;-75
2020/12/15 07:14:02;;;;;;;12.25;10.68;;;;;;;9.24;94.60;100695.34;5030205;28;20126;-75
2020/12/15 07:16:28;;;;;;;14.88;10.73;;;;;;;9.24;94.24;100695.34;5015517;28;20052;-73
2020/12/15 07:18:53;;;;;;;13.20;10.52;;;;;;;9.23;94.78;100691.00;5018739;28;20495;-73
2020/12/15 07:21:21;;;;;;;13.20;10.27;;;;;;;9.28;94.32;100688.75;5020472;28;20040;-72
2020/12/15 07:23:47;;;;;;;12.15;10.85;;;;;;;9.27;94.47;100700.38;5034584;28;20034;-77
2020/12/15 07:26:17;;;;;;;14.10;10.85;;;;;;;9.27;93.96;100704.91;5036041;28;20599;-75
2020/12/15 07:28:43;;;;;;;15.10;10.70;;;;;;;9.24;94.86;100716.66;5038453;28;20354;-75
2020/12/15 07:31:09;;;;;;;16.08;11.10;;;;;;;9.24;94.41;100708.66;5033517;28;20045;-75
2020/12/15 07:33:35;;;;;;;15.25;11.27;;;;;;;9.24;94.82;100703.34;5019100;28;20080;-75
2020/12/15 07:36:10;;;;;;;16.67;11.55;;;;;;;9.29;94.23;100702.94;5017151;28;20124;-75
2020/12/15 07:38:36;;;;;;;14.15;11.40;;;;;;;9.10;93.80;100671.88;5036632;28;20036;-76
2020/12/15 07:41:02;;;;;;;13.50;10.45;;;;;;;9.24;94.51;100708.66;5034754;28;20033;-73
2020/12/15 07:43:27;;;;;;;15.55;11.38;;;;;;;9.19;94.36;100702.97;5020857;28;20120;-75
2020/12/15 07:45:53;;;;;;;18.42;12.27;;;;;;;9.17;94.56;100707.59;5040877;28;20603;-76
2020/12/15 07:48:22;;;;;;;13.98;11.68;;;;;;;9.23;94.72;100719.47;5017887;28;20182;-74
2020/12/15 07:50:47;;;;;;;15.57;11.23;;;;;;;9.22;94.08;100721.31;5041076;28;20037;-74
2020/12/15 07:53:13;;;;;;;13.07;11.05;;;;;;;9.23;94.45;100722.97;5040761;28;20149;-74
2020/12/15 07:55:38;;;;;;;13.75;11.27;;;;;;;8.94;94.00;100676.03;5032641;28;20145;-77
2020/12/15 07:58:14;;;;;;;16.58;11.95;;;;;;;9.22;94.47;100739.97;5034357;28;20025;-73
2020/12/15 08:00:39;;;;;;;15.10;11.27;;;;;;;9.20;94.58;100741.91;5040585;28;20029;-74
2020/12/15 08:03:05;;;;;;;21.75;13.00;;;;;;;9.17;95.04;100751.03;4987765;28;20591;-75
2020/12/15 08:05:31;;;;;;;13.20;10.95;;;;;;;9.17;94.77;100740.38;5005042;28;20123;-73
2020/12/15 08:08:03;;;;;;;15.02;11.93;;;;;;;9.07;94.80;100741.41;5043750;28;20131;-79
2020/12/15 08:10:29;;;;;;;19.75;12.55;;;;;;;9.18;95.10;100750.03;5019343;28;20041;-75
2020/12/15 08:12:56;;;;;;;19.80;13.15;;;;;;;9.25;95.28;100762.78;5020874;28;20045;-76
2020/12/15 08:15:21;;;;;;;16.13;11.82;;;;;;;9.30;94.39;100768.47;5019045;28;20045;-77
2020/12/15 08:17:48;;;;;;;13.48;11.77;;;;;;;9.34;94.47;100768.06;5023796;28;20064;-79
2020/12/15 08:20:15;;;;;;;14.88;11.70;;;;;;;9.33;94.52;100769.06;5018422;28;20032;-76
2020/12/15 08:22:41;;;;;;;15.55;12.30;;;;;;;9.28;94.86;100762.50;5033567;28;20053;-76
2020/12/15 08:25:08;;;;;;;16.77;12.20;;;;;;;9.32;95.07;100771.84;5020487;28;20029;-77
2020/12/15 08:27:34;;;;;;;16.80;12.40;;;;;;;9.31;94.95;100775.50;5001552;28;20403;-76
2020/12/15 08:30:00;;;;;;;17.35;12.20;;;;;;;9.28;94.84;100778.47;5016875;28;20041;-76
2020/12/15 08:32:29;;;;;;;14.80;11.98;;;;;;;9.30;94.74;100768.47;5014292;28;20076;-76
2020/12/15 08:35:00;;;;;;;14.55;11.90;;;;;;;9.37;94.46;100785.56;5031830;28;20033;-77
2020/12/15 08:37:26;;;;;;;13.90;11.07;;;;;;;9.29;94.30;100777.47;5014908;28;20632;-76
2020/12/15 08:39:52;;;;;;;17.83;12.25;;;;;;;9.31;94.22;100788.81;4984860;28;20037;-77
2020/12/15 08:42:18;;;;;;;14.35;12.15;;;;;;;9.21;94.63;100777.34;5008881;28;20625;-76
2020/12/15 08:44:44;;;;;;;14.75;12.40;;;;;;;9.31;94.71;100810.09;4985729;28;20991;-77
2020/12/15 08:47:09;;;;;;;15.35;11.65;;;;;;;9.11;94.73;100772.91;5009620;28;20152;-77
2020/12/15 08:49:37;;;;;;;17.83;12.90;;;;;;;9.35;95.07;100808.84;4998795;28;20559;-78
2020/12/15 08:52:02;;;;;;;15.77;12.20;;;;;;;9.23;95.04;100800.19;5014099;28;20033;-74
2020/12/15 08:54:28;;;;;;;15.80;12.73;;;;;;;9.35;95.10;100819.50;5024543;28;20183;-74
2020/12/15 08:56:53;;;;;;;15.73;12.10;;;;;;;9.30;94.80;100808.44;5000552;28;20131;-77
2020/12/15 08:59:20;;;;;;;20.80;13.32;;;;;;;9.19;94.21;100790.84;5032326;28;20032;-82
2020/12/15 09:01:46;;;;;;;14.45;11.73;;;;;;;9.47;94.09;100821.00;5017744;28;20037;-75
2020/12/15 09:04:12;;;;;;;16.67;12.68;;;;;;;9.50;93.77;100818.03;5000835;28;20032;-77
2020/12/15 09:06:38;;;;;;;15.38;11.52;;;;;;;9.52;93.68;100822.38;5033601;28;20044;-77
2020/12/15 09:09:05;;;;;;;16.70;13.02;;;;;;;9.52;93.74;100833.88;5033827;28;20059;-78
2020/12/15 09:11:30;;;;;;;14.77;12.35;;;;;;;9.56;93.99;100834.44;5010507;28;20547;-77
2020/12/15 09:13:57;;;;;;;20.85;12.02;;;;;;;9.35;93.80;100808.84;5035538;28;20121;-77
2020/12/15 09:16:33;;;;;;;15.43;13.32;;;;;;;9.53;93.84;100834.72;5014217;28;20026;-77
2020/12/15 09:19:23;;;;;;;14.88;12.25;;;;;;;9.52;93.56;100833.03;5030168;28;20495;-77
2020/12/15 09:21:56;;;;;;;16.88;13.30;;;;;;;9.40;94.00;100819.91;5028554;28;20044;-78
2020/12/15 09:24:21;;;;;;;18.48;14.13;;;;;;;9.52;94.26;100843.69;5013911;28;20060;-77
2020/12/15 09:26:47;;;;;;;16.55;13.02;;;;;;;9.53;94.53;100832.06;5017048;28;20056;-74
2020/12/15 09:29:15;;;;;;;20.27;13.68;;;;;;;9.52;94.37;100839.19;5036727;28;20037;-77
2020/12/15 09:31:42;;;;;;;17.17;13.25;;;;;;;9.46;94.20;100829.97;5014447;28;20035;-77
2020/12/15 09:34:07;;;;;;;18.52;13.68;;;;;;;9.58;94.35;100848.41;5014725;28;20773;-77
2020/12/15 09:36:33;;;;;;;16.48;13.43;;;;;;;9.61;93.92;100853.47;5036448;28;20056;-77
2020/12/15 09:38:59;;;;;;;17.88;14.18;;;;;;;9.64;93.92;100859.34;5024010;28;20068;-77
2020/12/15 09:41:24;;;;;;;19.52;14.25;;;;;;;9.65;93.96;100862.84;5027180;28;20354;-77
2020/12/15 09:43:50;;;;;;;21.08;15.02;;;;;;;9.65;93.40;100861.00;5037916;28;20116;-77
2020/12/15 09:46:15;;;;;;;21.08;14.90;;;;;;;9.60;93.86;100867.78;5004661;28;20125;-77
2020/12/15 09:48:41;;;;;;;18.20;14.90;;;;;;;9.56;94.66;100879.72;5002575;28;20563;-74
2020/12/15 09:51:09;;;;;;;20.83;15.95;;;;;;;9.57;94.31;100878.75;5034797;28;20132;-74
2020/12/15 09:53:35;;;;;;;18.02;14.93;;;;;;;9.56;94.51;100879.72;5031427;28;20047;-74
2020/12/15 09:56:01;;;;;;;20.83;16.10;;;;;;;9.56;95.14;100872.56;5014322;28;20136;-73
2020/12/15 09:58:28;;;;;;;17.98;15.27;;;;;;;9.59;94.74;100877.59;5023348;28;20047;-77
2020/12/15 10:00:54;;;;;;;21.63;15.32;;;;;;;9.62;94.54;100874.66;5033525;28;20029;-78
2020/12/15 10:03:19;;;;;;;17.80;15.18;;;;;;;9.67;94.70;100876.88;5032080;28;20652;-76
2020/12/15 10:05:45;;;;;;;22.58;15.98;;;;;;;9.72;94.53;100874.59;5036770;28;20036;-76
2020/12/15 10:08:11;;;;;;;24.80;16.45;;;;;;;9.72;94.26;100884.41;5016231;28;20053;-76
2020/12/15 10:10:36;;;;;;;24.40;16.52;;;;;;;9.70;93.70;100889.91;5014885;28;20550;-78
2020/12/15 10:13:02;;;;;;;23.15;15.95;;;;;;;9.71;94.11;100901.41;5011267;28;20060;-77
2020/12/15 10:15:28;;;;;;;24.50;17.05;;;;;;;9.69;94.61;100895.38;5022892;28;20060;-76
2020/12/15 10:17:53;;;;;;;25.23;17.90;;;;;;;9.69;94.74;100895.38;5033178;28;20108;-76
2020/12/15 10:20:19;;;;;;;23.48;18.48;;;;;;;9.63;95.60;100886.13;5010048;28;20060;-76
2020/12/15 10:22:44;;;;;;;25.75;18.88;;;;;;;9.64;94.86;100882.50;5044680;28;20052;-76
2020/12/15 10:25:10;;;;;;;24.73;18.08;;;;;;;9.65;95.49;100865.50;5028390;28;20067;-77
2020/12/15 10:27:35;;;;;;;20.77;17.70;;;;;;;9.68;95.10;100867.91;5023637;28;20171;-77
2020/12/15 10:30:01;;;;;;;24.83;18.58;;;;;;;9.68;95.19;100865.22;5030485;28;20429;-77
2020/12/15 10:32:27;;;;;;;21.77;18.58;;;;;;;9.80;94.81;100873.84;5004944;28;20071;-77
2020/12/15 10:34:52;;;;;;;24.48;18.08;;;;;;;9.86;94.78;100881.28;5020112;28;20088;-76
2020/12/15 10:37:24;;;;;;;24.42;18.80;;;;;;;9.85;94.72;100881.41;5045383;28;20028;-76
2020/12/15 10:39:52;;;;;;;23.63;17.55;;;;;;;9.79;94.67;100873.03;5020194;28;20045;-76
2020/12/15 10:42:18;;;;;;;24.13;18.40;;;;;;;9.88;94.46;100886.44;5023991;28;20438;-77
2020/12/15 10:44:44;;;;;;;21.55;17.08;;;;;;;9.75;94.84;100855.66;5037853;28;20459;-73
2020/12/15 10:47:10;;;;;;;22.95;17.98;;;;;;;9.89;94.72;100877.47;5023273;28;20041;-74
2020/12/15 10:49:35;;;;;;;24.02;18.38;;;;;;;9.94;93.89;100891.19;5010283;28;20104;-81
2020/12/15 10:52:01;;;;;;;23.35;19.00;;;;;;;9.93;94.73;100884.19;5035115;28;20068;-79
2020/12/15 10:54:28;;;;;;;26.48;18.88;;;;;;;9.96;94.76;100886.56;5022159;28;20033;-80
2020/12/15 10:56:54;;;;;;;24.27;18.70;;;;;;;9.92;94.52;100896.66;5025698;28;20048;-73
2020/12/15 10:59:19;;;;;;;24.83;20.02;;;;;;;9.89;95.02;100888.97;5008853;28;20414;-84
2020/12/15 11:01:49;;;;;;;27.17;19.58;;;;;;;9.81;94.61;100867.53;5019594;28;20037;-83
2020/12/15 11:04:15;;;;;;;28.75;20.45;;;;;;;9.92;94.92;100883.34;5044672;28;20037;-85
2020/12/15 11:06:40;;;;;;;25.05;20.48;;;;;;;9.77;94.65;100861.66;5042943;28;20583;-85
2020/12/15 11:09:06;;;;;;;24.45;21.23;;;;;;;9.90;94.85;100889.81;5014443;28;20059;-84
2020/12/15 11:11:32;;;;;;;26.08;20.92;;;;;;;9.87;95.19;100893.63;5033039;28;20437;-84
2020/12/15 11:13:57;;;;;;;27.85;21.38;;;;;;;9.86;95.61;100891.94;5038115;28;20670;-81
2020/12/15 11:16:23;;;;;;;27.50;21.85;;;;;;;9.85;95.48;100900.06;5025827;28;20080;-82